createdAt,value
2022-09-23T00:02:38.298Z,100.00
2022-09-23T00:07:41.320Z,100.00
2022-09-23T00:12:43.998Z,100.00
2022-09-23T00:17:48.450Z,100.00
2022-09-23T00:22:51.219Z,100.00
2022-09-23T00:27:55.102Z,100.00
2022-09-23T00:32:59.900Z,100.00
2022-09-23T00:38:02.780Z,100.00
2022-09-23T00:43:07.404Z,100.00
2022-09-23T00:48:18.063Z,100.00
2022-09-23T00:53:26.503Z,100.00
2022-09-23T00:58:32.722Z,100.00
2022-09-23T01:03:36.930Z,100.00
2022-09-23T01:08:40.463Z,100.00
2022-09-23T01:13:53.164Z,100.00
2022-09-23T01:19:05.055Z,100.00
2022-09-23T01:24:34.904Z,100.00
2022-09-23T01:30:12.964Z,100.00
2022-09-23T01:35:27.489Z,100.00
2022-09-23T01:40:40.219Z,100.00
2022-09-23T01:45:46.520Z,100.00
2022-09-23T01:50:58.415Z,100.00
2022-09-23T01:56:06.607Z,100.00
2022-09-23T02:01:12.640Z,100.00
2022-09-23T02:06:22.700Z,100.00
2022-09-23T02:11:25.946Z,100.00
2022-09-23T02:16:33.164Z,100.00
2022-09-23T02:21:42.105Z,100.00
2022-09-23T02:26:50.863Z,100.00
2022-09-23T02:32:01.480Z,100.00
2022-09-23T02:37:12.638Z,100.00
2022-09-23T02:42:21.757Z,100.00
2022-09-23T02:47:28.964Z,100.00
2022-09-23T02:52:33.648Z,100.00
2022-09-23T02:57:36.464Z,100.00
2022-09-23T03:03:06.657Z,100.00
2022-09-23T03:08:29.171Z,100.00
2022-09-23T03:13:42.921Z,100.00
2022-09-23T03:18:50.717Z,100.00
2022-09-23T03:23:57.259Z,100.00
2022-09-23T03:29:04.932Z,100.00
2022-09-23T03:34:14.143Z,100.00
2022-09-23T03:39:33.153Z,100.00
2022-09-23T03:44:39.635Z,100.00
2022-09-23T03:49:45.447Z,100.00
2022-09-23T03:54:51.130Z,100.00
2022-09-23T03:59:54.641Z,100.00
2022-09-23T04:04:57.381Z,100.00
2022-09-23T04:10:01.413Z,100.00
2022-09-23T04:15:04.510Z,100.00
2022-09-23T04:20:08.037Z,100.00
2022-09-23T04:25:12.261Z,100.00
2022-09-23T04:30:15.069Z,100.00
2022-09-23T04:35:18.065Z,100.00
2022-09-23T04:40:22.363Z,100.00
2022-09-23T04:45:25.306Z,100.00
2022-09-23T04:50:28.542Z,100.00
2022-09-23T04:55:33.007Z,100.00
2022-09-23T05:00:35.746Z,100.00
2022-09-23T05:05:38.438Z,100.00
2022-09-23T05:10:42.574Z,100.00
2022-09-23T05:15:45.707Z,100.00
2022-09-23T05:20:54.306Z,100.00
2022-09-23T05:26:00.029Z,100.00
2022-09-23T05:31:04.358Z,100.00
2022-09-23T05:36:07.869Z,100.00
2022-09-23T05:41:14.197Z,100.00
2022-09-23T05:46:19.283Z,100.00
2022-09-23T05:51:28.774Z,100.00
2022-09-23T05:56:37.588Z,100.00
2022-09-23T06:01:40.754Z,100.00
2022-09-23T06:06:44.187Z,100.00
2022-09-23T06:11:48.431Z,100.00
2022-09-23T06:16:51.099Z,100.00
2022-09-23T06:21:53.951Z,100.00
2022-09-23T06:26:58.619Z,100.00
2022-09-23T06:32:01.936Z,100.00
2022-09-23T06:37:15.399Z,100.00
2022-09-23T06:42:22.855Z,100.00
2022-09-23T06:47:26.207Z,100.00
2022-09-23T06:52:28.987Z,100.00
2022-09-23T06:57:33.881Z,100.00
2022-09-23T07:02:37.299Z,100.00
2022-09-23T07:07:40.301Z,100.00
2022-09-23T07:12:44.645Z,100.00
2022-09-23T07:17:47.349Z,100.00
2022-09-23T07:22:52.147Z,100.00
2022-09-23T07:27:58.221Z,100.00
2022-09-23T07:33:04.776Z,100.00
2022-09-23T07:38:12.158Z,100.00
2022-09-23T07:43:16.255Z,100.00
2022-09-23T07:48:19.018Z,99.91
2022-09-23T07:53:22.344Z,97.32
2022-09-23T07:58:27.394Z,98.02
2022-09-23T08:03:30.283Z,96.16
2022-09-23T08:08:33.130Z,98.25
2022-09-23T08:13:38.143Z,97.98
2022-09-23T08:18:44.684Z,96.86
2022-09-23T08:23:52.748Z,92.68
2022-09-23T08:28:56.821Z,92.52
2022-09-23T08:34:00.136Z,92.29
2022-09-23T08:39:03.801Z,91.59
2022-09-23T08:44:14.396Z,92.60
2022-09-23T08:49:26.909Z,87.45
2022-09-23T08:54:56.318Z,87.15
2022-09-23T09:00:03.514Z,86.15
2022-09-23T09:05:12.793Z,86.85
2022-09-23T09:10:19.735Z,84.87
2022-09-23T09:15:26.573Z,85.97
2022-09-23T09:20:40.015Z,81.61
2022-09-23T09:25:45.803Z,80.54
2022-09-23T09:30:56.996Z,77.66
2022-09-23T09:36:15.712Z,75.74
2022-09-23T09:41:21.365Z,76.37
2022-09-23T09:46:45.184Z,74.87
2022-09-23T09:51:47.952Z,72.96
2022-09-23T09:56:51.751Z,71.03
2022-09-23T10:02:13.974Z,70.14
2022-09-23T10:07:17.547Z,70.31
2022-09-23T10:12:21.719Z,68.82
2022-09-23T10:17:35.490Z,68.42
2022-09-23T10:22:43.731Z,66.05
2022-09-23T10:27:47.214Z,66.15
2022-09-23T10:32:54.889Z,66.30
2022-09-23T10:37:59.034Z,65.65
2022-09-23T10:43:35.745Z,62.95
2022-09-23T10:48:52.152Z,62.92
2022-09-23T10:54:03.768Z,63.07
2022-09-23T10:59:40.782Z,61.70
2022-09-23T11:05:15.479Z,58.61
2022-09-23T11:10:54.368Z,60.32
2022-09-23T11:16:06.468Z,58.90
2022-09-23T11:21:28.882Z,59.66
2022-09-23T11:26:42.851Z,59.94
2022-09-23T11:31:59.314Z,59.38
2022-09-23T11:37:05.782Z,55.47
2022-09-23T11:42:15.784Z,55.69
2022-09-23T11:47:23.390Z,55.83
2022-09-23T11:52:32.619Z,54.39
2022-09-23T11:57:48.836Z,54.41
2022-09-23T12:03:06.472Z,52.84
2022-09-23T12:08:24.052Z,53.27
2022-09-23T12:13:37.369Z,53.50
2022-09-23T12:18:54.169Z,50.54
2022-09-23T12:24:24.661Z,49.37
2022-09-23T12:29:32.537Z,50.99
2022-09-23T12:34:47.961Z,48.63
2022-09-23T12:39:52.910Z,46.59
2022-09-23T12:45:34.477Z,44.71
2022-09-23T12:50:58.647Z,43.96
2022-09-23T12:56:15.327Z,43.88
2022-09-23T13:01:20.293Z,44.67
2022-09-23T13:06:41.947Z,41.69
2022-09-23T13:11:48.046Z,40.77
2022-09-23T13:16:51.006Z,39.48
2022-09-23T13:22:06.640Z,42.01
2022-09-23T13:27:31.975Z,42.50
2022-09-23T13:32:38.426Z,43.51
2022-09-23T13:37:47.763Z,43.51
2022-09-23T13:42:58.441Z,44.15
2022-09-23T13:48:04.646Z,44.59
2022-09-23T13:53:10.565Z,44.40
2022-09-23T13:58:19.591Z,45.04
2022-09-23T14:03:30.188Z,43.27
2022-09-23T14:08:35.744Z,43.66
2022-09-23T14:13:44.026Z,43.75
2022-09-23T14:18:49.383Z,43.73
2022-09-23T14:23:52.118Z,43.98
2022-09-23T14:28:56.224Z,43.70
2022-09-23T14:33:58.935Z,42.89
2022-09-23T14:39:04.362Z,43.83
2022-09-23T14:44:19.040Z,44.99
2022-09-23T14:49:22.039Z,45.02
2022-09-23T14:54:34.066Z,46.80
2022-09-23T14:59:39.071Z,46.50
2022-09-23T15:04:41.856Z,46.49
2022-09-23T15:09:46.057Z,48.29
2022-09-23T15:14:53.604Z,47.45
2022-09-23T15:19:59.672Z,48.39
2022-09-23T15:30:50.227Z,52.94
2022-09-23T15:35:53.063Z,51.82
2022-09-23T15:40:55.890Z,50.87
2022-09-23T15:46:06.297Z,54.26
2022-09-23T15:51:09.807Z,55.59
2022-09-23T15:56:13.240Z,56.70
2022-09-23T16:01:21.834Z,54.88
2022-09-23T16:06:26.898Z,55.17
2022-09-23T16:11:32.747Z,55.73
2022-09-23T16:16:36.902Z,62.26
2022-09-23T16:21:40.791Z,61.49
2022-09-23T16:26:45.176Z,66.35
2022-09-23T16:31:49.368Z,70.46
2022-09-23T16:36:52.860Z,70.78
2022-09-23T16:41:55.881Z,71.02
2022-09-23T16:47:00.176Z,70.88
2022-09-23T16:52:03.143Z,70.80
2022-09-23T16:57:05.800Z,71.47
2022-09-23T17:02:29.681Z,75.19
2022-09-23T17:07:32.441Z,79.08
2022-09-23T17:12:35.319Z,77.49
2022-09-23T17:17:39.369Z,80.96
2022-09-23T17:22:42.827Z,80.93
2022-09-23T17:27:45.565Z,82.27
2022-09-23T17:32:49.745Z,86.76
2022-09-23T17:37:52.979Z,90.11
2022-09-23T17:42:56.280Z,93.18
2022-09-23T17:48:00.375Z,94.40
2022-09-23T17:53:03.123Z,93.96
2022-09-23T17:58:05.841Z,92.78
2022-09-23T18:03:10.381Z,97.33
2022-09-23T18:08:13.054Z,100.00
2022-09-23T18:13:15.810Z,98.82
2022-09-23T18:18:19.872Z,97.35
2022-09-23T18:23:26.204Z,98.26
2022-09-23T18:28:34.540Z,97.57
2022-09-23T18:33:39.213Z,97.49
2022-09-23T18:38:41.941Z,100.00
2022-09-23T18:43:48.522Z,100.00
2022-09-23T18:49:11.822Z,100.00
2022-09-23T18:54:16.016Z,100.00
2022-09-23T18:59:20.686Z,100.00
2022-09-23T19:04:26.341Z,100.00
2022-09-23T19:09:29.031Z,100.00
2022-09-23T19:14:31.833Z,100.00
2022-09-23T19:19:35.857Z,100.00
2022-09-23T19:24:38.532Z,100.00
2022-09-23T19:29:41.669Z,100.00
2022-09-23T19:34:46.268Z,100.00
2022-09-23T19:39:50.020Z,100.00
2022-09-23T19:44:53.029Z,100.00
2022-09-23T19:49:57.147Z,100.00
2022-09-23T19:54:59.999Z,100.00
2022-09-23T20:00:03.344Z,100.00
2022-09-23T20:05:20.312Z,100.00
2022-09-23T20:10:23.789Z,100.00
2022-09-23T20:15:27.677Z,100.00
2022-09-23T20:20:31.786Z,100.00
2022-09-23T20:25:54.454Z,100.00
2022-09-23T20:30:59.260Z,100.00
2022-09-23T20:36:04.859Z,100.00
2022-09-23T20:41:09.263Z,100.00
2022-09-23T20:46:14.919Z,100.00
2022-09-23T20:51:19.291Z,100.00
2022-09-23T20:56:23.155Z,100.00
2022-09-23T21:01:27.234Z,100.00
2022-09-23T21:06:57.412Z,100.00
2022-09-23T21:12:00.390Z,100.00
2022-09-23T21:17:03.498Z,100.00
2022-09-23T21:22:07.671Z,100.00
2022-09-23T21:27:10.588Z,100.00
2022-09-23T21:32:13.258Z,100.00
2022-09-23T21:37:17.579Z,100.00
2022-09-23T21:42:20.283Z,100.00
2022-09-23T21:47:23.419Z,100.00
2022-09-23T21:52:27.487Z,100.00
2022-09-23T21:57:30.932Z,100.00
2022-09-23T22:02:34.164Z,100.00
2022-09-23T22:07:38.439Z,100.00
2022-09-23T22:12:41.518Z,100.00
2022-09-23T22:17:44.329Z,100.00
2022-09-23T22:22:48.445Z,100.00
2022-09-23T22:28:08.806Z,100.00
2022-09-23T22:33:11.501Z,100.00
2022-09-23T22:38:16.377Z,100.00
2022-09-23T22:43:21.608Z,100.00
2022-09-23T22:48:24.317Z,100.00
2022-09-23T22:53:29.120Z,100.00
2022-09-23T22:58:32.948Z,100.00
2022-09-23T23:03:36.202Z,100.00
2022-09-23T23:08:40.600Z,100.00
2022-09-23T23:13:43.879Z,100.00
2022-09-23T23:18:47.604Z,100.00
2022-09-23T23:23:53.970Z,100.00
2022-09-23T23:28:57.607Z,100.00
2022-09-23T23:34:00.400Z,100.00
2022-09-23T23:39:04.975Z,100.00
2022-09-23T23:44:07.896Z,100.00
2022-09-23T23:49:10.625Z,100.00
2022-09-23T23:54:15.596Z,100.00
2022-09-23T23:59:21.070Z,100.00
